sensor_id;sensor_type;location;lat;lon;timestamp;P1;durP1;ratioP1;P2;durP2;ratioP2
31920;SDS011;66485;52.128;4.436;2023-03-01T00:01:29;2.92;;;1.30;;
31920;SDS011;66485;52.128;4.436;2023-03-01T00:03:56;4.32;;;1.50;;
31920;SDS011;66485;52.128;4.436;2023-03-01T00:06:22;3.53;;;1.73;;
31920;SDS011;66485;52.128;4.436;2023-03-01T00:08:48;3.08;;;1.70;;
31920;SDS011;66485;52.128;4.436;2023-03-01T00:11:15;2.95;;;1.25;;
31920;SDS011;66485;52.128;4.436;2023-03-01T00:13:44;3.70;;;1.45;;
31920;SDS011;66485;52.128;4.436;2023-03-01T00:16:14;2.60;;;1.63;;
31920;SDS011;66485;52.128;4.436;2023-03-01T00:18:41;2.58;;;1.45;;
31920;SDS011;66485;52.128;4.436;2023-03-01T00:21:07;2.97;;;1.50;;
31920;SDS011;66485;52.128;4.436;2023-03-01T00:23:35;3.00;;;1.42;;
31920;SDS011;66485;52.128;4.436;2023-03-01T00:26:02;3.17;;;1.40;;
31920;SDS011;66485;52.128;4.436;2023-03-01T00:28:31;2.97;;;1.65;;
31920;SDS011;66485;52.128;4.436;2023-03-01T00:31:01;2.70;;;1.27;;
31920;SDS011;66485;52.128;4.436;2023-03-01T00:33:28;3.25;;;1.75;;
31920;SDS011;66485;52.128;4.436;2023-03-01T00:35:53;2.30;;;1.30;;
31920;SDS011;66485;52.128;4.436;2023-03-01T00:38:18;2.57;;;1.47;;
31920;SDS011;66485;52.128;4.436;2023-03-01T00:40:44;3.00;;;1.38;;
31920;SDS011;66485;52.128;4.436;2023-03-01T00:43:09;2.75;;;1.40;;
31920;SDS011;66485;52.128;4.436;2023-03-01T00:45:35;2.92;;;1.58;;
31920;SDS011;66485;52.128;4.436;2023-03-01T00:48:00;3.50;;;1.65;;
31920;SDS011;66485;52.128;4.436;2023-03-01T00:50:25;3.10;;;1.20;;
31920;SDS011;66485;52.128;4.436;2023-03-01T00:52:54;2.10;;;1.27;;
31920;SDS011;66485;52.128;4.436;2023-03-01T00:55:20;3.25;;;1.50;;
31920;SDS011;66485;52.128;4.436;2023-03-01T00:57:46;2.55;;;1.30;;
31920;SDS011;66485;52.128;4.436;2023-03-01T01:00:11;2.85;;;1.30;;
31920;SDS011;66485;52.128;4.436;2023-03-01T01:02:37;2.35;;;1.30;;
31920;SDS011;66485;52.128;4.436;2023-03-01T01:05:02;2.42;;;1.35;;
31920;SDS011;66485;52.128;4.436;2023-03-01T01:07:28;3.30;;;1.45;;
31920;SDS011;66485;52.128;4.436;2023-03-01T01:09:54;2.60;;;1.35;;
31920;SDS011;66485;52.128;4.436;2023-03-01T01:12:19;2.90;;;1.33;;
31920;SDS011;66485;52.128;4.436;2023-03-01T01:14:44;3.58;;;1.60;;
31920;SDS011;66485;52.128;4.436;2023-03-01T01:17:11;1.95;;;1.10;;
31920;SDS011;66485;52.128;4.436;2023-03-01T01:19:36;2.95;;;1.30;;
31920;SDS011;66485;52.128;4.436;2023-03-01T01:22:01;3.05;;;1.67;;
31920;SDS011;66485;52.128;4.436;2023-03-01T01:24:27;2.10;;;1.17;;
31920;SDS011;66485;52.128;4.436;2023-03-01T01:26:52;2.50;;;1.40;;
31920;SDS011;66485;52.128;4.436;2023-03-01T01:29:17;2.75;;;1.42;;
31920;SDS011;66485;52.128;4.436;2023-03-01T01:31:43;2.80;;;1.30;;
31920;SDS011;66485;52.128;4.436;2023-03-01T01:34:12;2.22;;;1.23;;
31920;SDS011;66485;52.128;4.436;2023-03-01T01:36:43;3.97;;;1.40;;
31920;SDS011;66485;52.128;4.436;2023-03-01T01:39:12;1.80;;;1.23;;
31920;SDS011;66485;52.128;4.436;2023-03-01T01:41:38;2.60;;;1.30;;
31920;SDS011;66485;52.128;4.436;2023-03-01T01:46:44;3.35;;;1.35;;
31920;SDS011;66485;52.128;4.436;2023-03-01T01:51:47;2.95;;;1.33;;
31920;SDS011;66485;52.128;4.436;2023-03-01T01:54:50;2.40;;;1.33;;
31920;SDS011;66485;52.128;4.436;2023-03-01T01:57:14;2.58;;;1.20;;
31920;SDS011;66485;52.128;4.436;2023-03-01T01:59:43;2.57;;;1.37;;
31920;SDS011;66485;52.128;4.436;2023-03-01T02:02:14;2.10;;;1.13;;
31920;SDS011;66485;52.128;4.436;2023-03-01T02:04:39;2.08;;;1.23;;
31920;SDS011;66485;52.128;4.436;2023-03-01T02:07:15;3.13;;;1.13;;
31920;SDS011;66485;52.128;4.436;2023-03-01T02:09:47;2.00;;;1.10;;
31920;SDS011;66485;52.128;4.436;2023-03-01T02:12:14;1.98;;;1.00;;
31920;SDS011;66485;52.128;4.436;2023-03-01T02:14:42;2.30;;;1.20;;
31920;SDS011;66485;52.128;4.436;2023-03-01T02:17:08;3.03;;;1.30;;
31920;SDS011;66485;52.128;4.436;2023-03-01T02:19:39;1.90;;;1.13;;
31920;SDS011;66485;52.128;4.436;2023-03-01T02:22:33;2.53;;;1.00;;
31920;SDS011;66485;52.128;4.436;2023-03-01T02:30:25;1.88;;;1.08;;
31920;SDS011;66485;52.128;4.436;2023-03-01T02:32:51;2.65;;;1.17;;
31920;SDS011;66485;52.128;4.436;2023-03-01T02:35:18;3.38;;;1.20;;
31920;SDS011;66485;52.128;4.436;2023-03-01T02:37:44;2.17;;;1.10;;
31920;SDS011;66485;52.128;4.436;2023-03-01T02:40:16;3.80;;;1.15;;
31920;SDS011;66485;52.128;4.436;2023-03-01T02:42:46;1.90;;;0.98;;
31920;SDS011;66485;52.128;4.436;2023-03-01T02:45:15;2.50;;;1.10;;
31920;SDS011;66485;52.128;4.436;2023-03-01T02:47:41;4.20;;;1.10;;
31920;SDS011;66485;52.128;4.436;2023-03-01T02:50:11;2.30;;;1.10;;
31920;SDS011;66485;52.128;4.436;2023-03-01T02:52:53;1.67;;;1.02;;
31920;SDS011;66485;52.128;4.436;2023-03-01T02:55:20;4.00;;;1.00;;
31920;SDS011;66485;52.128;4.436;2023-03-01T02:57:46;2.30;;;1.10;;
31920;SDS011;66485;52.128;4.436;2023-03-01T03:00:19;1.70;;;1.00;;
31920;SDS011;66485;52.128;4.436;2023-03-01T03:02:48;3.42;;;1.38;;
31920;SDS011;66485;52.128;4.436;2023-03-01T03:05:17;2.25;;;1.10;;
31920;SDS011;66485;52.128;4.436;2023-03-01T03:07:45;2.40;;;1.00;;
31920;SDS011;66485;52.128;4.436;2023-03-01T03:10:13;2.00;;;1.10;;
31920;SDS011;66485;52.128;4.436;2023-03-01T03:12:40;2.33;;;1.13;;
31920;SDS011;66485;52.128;4.436;2023-03-01T03:15:07;1.70;;;1.08;;
31920;SDS011;66485;52.128;4.436;2023-03-01T03:17:37;2.10;;;1.00;;
31920;SDS011;66485;52.128;4.436;2023-03-01T03:20:05;1.98;;;1.05;;
31920;SDS011;66485;52.128;4.436;2023-03-01T03:22:35;1.52;;;0.90;;
31920;SDS011;66485;52.128;4.436;2023-03-01T03:25:01;1.67;;;1.00;;
31920;SDS011;66485;52.128;4.436;2023-03-01T03:27:27;1.30;;;0.98;;
31920;SDS011;66485;52.128;4.436;2023-03-01T03:29:52;2.28;;;1.13;;
31920;SDS011;66485;52.128;4.436;2023-03-01T03:32:18;1.92;;;1.15;;
31920;SDS011;66485;52.128;4.436;2023-03-01T03:34:43;2.40;;;1.10;;
31920;SDS011;66485;52.128;4.436;2023-03-01T03:37:08;2.85;;;1.20;;
31920;SDS011;66485;52.128;4.436;2023-03-01T03:39:53;2.30;;;1.10;;
31920;SDS011;66485;52.128;4.436;2023-03-01T03:42:20;1.42;;;0.90;;
31920;SDS011;66485;52.128;4.436;2023-03-01T03:44:47;1.83;;;1.10;;
31920;SDS011;66485;52.128;4.436;2023-03-01T03:47:12;2.33;;;0.95;;
31920;SDS011;66485;52.128;4.436;2023-03-01T03:49:38;1.50;;;1.00;;
31920;SDS011;66485;52.128;4.436;2023-03-01T03:52:03;1.85;;;0.90;;
31920;SDS011;66485;52.128;4.436;2023-03-01T03:54:28;2.45;;;0.90;;
31920;SDS011;66485;52.128;4.436;2023-03-01T03:56:54;2.70;;;1.13;;
31920;SDS011;66485;52.128;4.436;2023-03-01T03:59:19;1.65;;;1.05;;
31920;SDS011;66485;52.128;4.436;2023-03-01T04:01:44;2.88;;;1.05;;
31920;SDS011;66485;52.128;4.436;2023-03-01T04:04:10;2.65;;;1.00;;
31920;SDS011;66485;52.128;4.436;2023-03-01T04:06:35;2.63;;;1.40;;
31920;SDS011;66485;52.128;4.436;2023-03-01T04:09:00;2.25;;;0.88;;
31920;SDS011;66485;52.128;4.436;2023-03-01T04:11:27;2.33;;;1.10;;
31920;SDS011;66485;52.128;4.436;2023-03-01T04:13:54;2.55;;;1.10;;
31920;SDS011;66485;52.128;4.436;2023-03-01T04:16:21;1.85;;;0.98;;
31920;SDS011;66485;52.128;4.436;2023-03-01T04:18:47;2.95;;;1.30;;
31920;SDS011;66485;52.128;4.436;2023-03-01T04:21:13;1.60;;;0.95;;
31920;SDS011;66485;52.128;4.436;2023-03-01T04:23:39;2.08;;;1.25;;
31920;SDS011;66485;52.128;4.436;2023-03-01T04:26:06;1.85;;;0.90;;
31920;SDS011;66485;52.128;4.436;2023-03-01T04:31:07;1.52;;;0.88;;
31920;SDS011;66485;52.128;4.436;2023-03-01T04:33:44;2.20;;;1.10;;
31920;SDS011;66485;52.128;4.436;2023-03-01T04:36:12;1.55;;;0.88;;
31920;SDS011;66485;52.128;4.436;2023-03-01T04:38:39;1.85;;;1.00;;
31920;SDS011;66485;52.128;4.436;2023-03-01T04:41:06;1.42;;;0.80;;
31920;SDS011;66485;52.128;4.436;2023-03-01T04:43:33;2.35;;;1.13;;
31920;SDS011;66485;52.128;4.436;2023-03-01T04:46:09;1.23;;;0.80;;
31920;SDS011;66485;52.128;4.436;2023-03-01T04:48:41;1.55;;;1.00;;
31920;SDS011;66485;52.128;4.436;2023-03-01T04:51:07;1.60;;;1.10;;
31920;SDS011;66485;52.128;4.436;2023-03-01T04:53:33;2.47;;;0.95;;
31920;SDS011;66485;52.128;4.436;2023-03-01T04:56:01;1.42;;;1.00;;
31920;SDS011;66485;52.128;4.436;2023-03-01T04:58:27;2.30;;;1.00;;
31920;SDS011;66485;52.128;4.436;2023-03-01T05:00:53;2.10;;;1.20;;
31920;SDS011;66485;52.128;4.436;2023-03-01T05:03:19;1.60;;;0.98;;
31920;SDS011;66485;52.128;4.436;2023-03-01T05:05:47;1.88;;;1.20;;
31920;SDS011;66485;52.128;4.436;2023-03-01T05:08:13;1.95;;;0.88;;
31920;SDS011;66485;52.128;4.436;2023-03-01T05:10:46;3.10;;;1.08;;
31920;SDS011;66485;52.128;4.436;2023-03-01T05:13:14;1.98;;;1.00;;
31920;SDS011;66485;52.128;4.436;2023-03-01T05:15:45;1.85;;;0.95;;
31920;SDS011;66485;52.128;4.436;2023-03-01T05:18:21;2.22;;;1.13;;
31920;SDS011;66485;52.128;4.436;2023-03-01T05:20:51;1.90;;;1.10;;
31920;SDS011;66485;52.128;4.436;2023-03-01T05:23:17;1.83;;;1.10;;
31920;SDS011;66485;52.128;4.436;2023-03-01T05:25:43;1.67;;;0.90;;
31920;SDS011;66485;52.128;4.436;2023-03-01T05:28:12;1.63;;;0.98;;
31920;SDS011;66485;52.128;4.436;2023-03-01T05:30:38;2.15;;;1.00;;
31920;SDS011;66485;52.128;4.436;2023-03-01T05:33:04;2.10;;;1.08;;
31920;SDS011;66485;52.128;4.436;2023-03-01T05:35:29;1.73;;;1.10;;
31920;SDS011;66485;52.128;4.436;2023-03-01T05:37:57;2.40;;;1.00;;
31920;SDS011;66485;52.128;4.436;2023-03-01T05:40:23;2.67;;;1.20;;
31920;SDS011;66485;52.128;4.436;2023-03-01T05:42:51;1.20;;;0.80;;
31920;SDS011;66485;52.128;4.436;2023-03-01T05:45:19;2.15;;;1.00;;
31920;SDS011;66485;52.128;4.436;2023-03-01T05:47:45;2.00;;;1.27;;
31920;SDS011;66485;52.128;4.436;2023-03-01T05:50:13;1.80;;;1.10;;
31920;SDS011;66485;52.128;4.436;2023-03-01T05:52:43;1.23;;;0.90;;
31920;SDS011;66485;52.128;4.436;2023-03-01T05:55:13;1.40;;;0.82;;
31920;SDS011;66485;52.128;4.436;2023-03-01T05:57:39;1.80;;;0.80;;
31920;SDS011;66485;52.128;4.436;2023-03-01T06:00:05;2.20;;;1.20;;
31920;SDS011;66485;52.128;4.436;2023-03-01T06:02:31;2.13;;;0.82;;
31920;SDS011;66485;52.128;4.436;2023-03-01T06:04:56;1.52;;;0.93;;
31920;SDS011;66485;52.128;4.436;2023-03-01T06:07:22;1.55;;;0.90;;
31920;SDS011;66485;52.128;4.436;2023-03-01T06:09:47;1.63;;;1.00;;
31920;SDS011;66485;52.128;4.436;2023-03-01T06:12:12;2.00;;;1.00;;
31920;SDS011;66485;52.128;4.436;2023-03-01T06:14:37;2.85;;;1.10;;
31920;SDS011;66485;52.128;4.436;2023-03-01T06:17:03;1.70;;;0.90;;
31920;SDS011;66485;52.128;4.436;2023-03-01T06:19:28;2.38;;;1.00;;
31920;SDS011;66485;52.128;4.436;2023-03-01T06:21:53;1.33;;;0.90;;
31920;SDS011;66485;52.128;4.436;2023-03-01T06:24:19;2.97;;;1.10;;
31920;SDS011;66485;52.128;4.436;2023-03-01T06:26:44;1.90;;;1.00;;
31920;SDS011;66485;52.128;4.436;2023-03-01T06:29:09;1.90;;;1.05;;
31920;SDS011;66485;52.128;4.436;2023-03-01T06:31:35;1.02;;;0.80;;
31920;SDS011;66485;52.128;4.436;2023-03-01T06:34:00;1.65;;;0.90;;
31920;SDS011;66485;52.128;4.436;2023-03-01T06:36:25;1.92;;;1.02;;
31920;SDS011;66485;52.128;4.436;2023-03-01T06:38:51;1.10;;;0.82;;
31920;SDS011;66485;52.128;4.436;2023-03-01T06:41:16;1.70;;;1.00;;
31920;SDS011;66485;52.128;4.436;2023-03-01T06:43:41;1.83;;;1.00;;
31920;SDS011;66485;52.128;4.436;2023-03-01T06:46:06;1.60;;;1.00;;
31920;SDS011;66485;52.128;4.436;2023-03-01T06:48:32;1.42;;;0.90;;
31920;SDS011;66485;52.128;4.436;2023-03-01T06:50:59;1.90;;;0.88;;
31920;SDS011;66485;52.128;4.436;2023-03-01T06:53:28;1.77;;;1.10;;
31920;SDS011;66485;52.128;4.436;2023-03-01T06:55:57;2.03;;;1.08;;
31920;SDS011;66485;52.128;4.436;2023-03-01T06:58:24;1.33;;;0.80;;
31920;SDS011;66485;52.128;4.436;2023-03-01T07:00:50;1.45;;;0.90;;
31920;SDS011;66485;52.128;4.436;2023-03-01T07:03:15;1.33;;;0.98;;
31920;SDS011;66485;52.128;4.436;2023-03-01T07:05:41;2.85;;;1.00;;
31920;SDS011;66485;52.128;4.436;2023-03-01T07:08:06;1.90;;;1.08;;
31920;SDS011;66485;52.128;4.436;2023-03-01T07:10:31;3.22;;;1.20;;
31920;SDS011;66485;52.128;4.436;2023-03-01T07:12:57;1.48;;;1.00;;
31920;SDS011;66485;52.128;4.436;2023-03-01T07:15:23;1.90;;;1.30;;
31920;SDS011;66485;52.128;4.436;2023-03-01T07:17:50;2.28;;;1.05;;
31920;SDS011;66485;52.128;4.436;2023-03-01T07:20:16;1.60;;;0.88;;
31920;SDS011;66485;52.128;4.436;2023-03-01T07:22:43;1.25;;;0.80;;
31920;SDS011;66485;52.128;4.436;2023-03-01T07:25:09;1.40;;;1.05;;
31920;SDS011;66485;52.128;4.436;2023-03-01T07:27:35;1.98;;;1.23;;
31920;SDS011;66485;52.128;4.436;2023-03-01T07:30:00;2.38;;;1.25;;
31920;SDS011;66485;52.128;4.436;2023-03-01T07:32:25;1.70;;;0.90;;
31920;SDS011;66485;52.128;4.436;2023-03-01T07:34:51;1.98;;;1.10;;
31920;SDS011;66485;52.128;4.436;2023-03-01T07:37:16;1.42;;;1.00;;
31920;SDS011;66485;52.128;4.436;2023-03-01T07:39:42;2.95;;;1.00;;
31920;SDS011;66485;52.128;4.436;2023-03-01T07:42:07;1.88;;;1.00;;
31920;SDS011;66485;52.128;4.436;2023-03-01T07:44:33;1.73;;;1.00;;
31920;SDS011;66485;52.128;4.436;2023-03-01T07:46:59;2.25;;;0.98;;
31920;SDS011;66485;52.128;4.436;2023-03-01T07:49:25;2.53;;;1.00;;
31920;SDS011;66485;52.128;4.436;2023-03-01T07:51:51;2.05;;;1.08;;
31920;SDS011;66485;52.128;4.436;2023-03-01T07:54:17;2.42;;;1.38;;
31920;SDS011;66485;52.128;4.436;2023-03-01T07:56:43;2.83;;;1.13;;
31920;SDS011;66485;52.128;4.436;2023-03-01T07:59:08;2.33;;;1.02;;
31920;SDS011;66485;52.128;4.436;2023-03-01T08:01:33;1.48;;;1.00;;
31920;SDS011;66485;52.128;4.436;2023-03-01T08:03:59;3.15;;;1.25;;
31920;SDS011;66485;52.128;4.436;2023-03-01T08:06:24;2.07;;;1.03;;
31920;SDS011;66485;52.128;4.436;2023-03-01T08:08:49;2.03;;;1.10;;
31920;SDS011;66485;52.128;4.436;2023-03-01T08:11:15;1.90;;;1.30;;
31920;SDS011;66485;52.128;4.436;2023-03-01T08:13:41;2.92;;;1.52;;
31920;SDS011;66485;52.128;4.436;2023-03-01T08:16:13;1.95;;;1.27;;
31920;SDS011;66485;52.128;4.436;2023-03-01T08:18:40;1.90;;;1.05;;
31920;SDS011;66485;52.128;4.436;2023-03-01T08:21:06;2.65;;;1.20;;
31920;SDS011;66485;52.128;4.436;2023-03-01T08:23:33;1.92;;;0.93;;
31920;SDS011;66485;52.128;4.436;2023-03-01T08:26:09;2.20;;;1.20;;
31920;SDS011;66485;52.128;4.436;2023-03-01T08:28:38;2.40;;;1.30;;
31920;SDS011;66485;52.128;4.436;2023-03-01T08:31:12;1.70;;;1.20;;
31920;SDS011;66485;52.128;4.436;2023-03-01T08:33:43;4.03;;;1.10;;
31920;SDS011;66485;52.128;4.436;2023-03-01T08:36:09;1.95;;;1.20;;
31920;SDS011;66485;52.128;4.436;2023-03-01T08:38:34;6.93;;;1.17;;
31920;SDS011;66485;52.128;4.436;2023-03-01T08:41:00;3.47;;;1.05;;
31920;SDS011;66485;52.128;4.436;2023-03-01T08:43:27;2.88;;;1.23;;
31920;SDS011;66485;52.128;4.436;2023-03-01T08:45:52;2.70;;;1.23;;
31920;SDS011;66485;52.128;4.436;2023-03-01T08:48:18;3.28;;;1.38;;
31920;SDS011;66485;52.128;4.436;2023-03-01T08:50:43;1.73;;;0.90;;
31920;SDS011;66485;52.128;4.436;2023-03-01T08:53:08;7.23;;;1.20;;
31920;SDS011;66485;52.128;4.436;2023-03-01T08:55:33;2.90;;;1.30;;
31920;SDS011;66485;52.128;4.436;2023-03-01T08:57:59;2.40;;;1.10;;
31920;SDS011;66485;52.128;4.436;2023-03-01T09:00:24;3.63;;;1.60;;
31920;SDS011;66485;52.128;4.436;2023-03-01T09:02:50;2.67;;;1.30;;
31920;SDS011;66485;52.128;4.436;2023-03-01T09:05:15;2.45;;;1.20;;
31920;SDS011;66485;52.128;4.436;2023-03-01T09:07:40;2.08;;;1.35;;
31920;SDS011;66485;52.128;4.436;2023-03-01T09:10:06;3.97;;;1.40;;
31920;SDS011;66485;52.128;4.436;2023-03-01T09:12:31;3.63;;;1.20;;
31920;SDS011;66485;52.128;4.436;2023-03-01T09:14:56;3.85;;;1.10;;
31920;SDS011;66485;52.128;4.436;2023-03-01T09:17:22;2.17;;;1.23;;
31920;SDS011;66485;52.128;4.436;2023-03-01T09:19:47;15.90;;;3.15;;
31920;SDS011;66485;52.128;4.436;2023-03-01T09:22:13;9.98;;;2.55;;
31920;SDS011;66485;52.128;4.436;2023-03-01T09:24:38;6.53;;;1.75;;
31920;SDS011;66485;52.128;4.436;2023-03-01T09:27:05;5.30;;;1.58;;
31920;SDS011;66485;52.128;4.436;2023-03-01T09:29:34;7.57;;;1.50;;
31920;SDS011;66485;52.128;4.436;2023-03-01T09:32:03;6.65;;;1.95;;
31920;SDS011;66485;52.128;4.436;2023-03-01T09:34:28;4.63;;;1.83;;
31920;SDS011;66485;52.128;4.436;2023-03-01T09:36:54;4.45;;;1.55;;
31920;SDS011;66485;52.128;4.436;2023-03-01T09:39:19;4.68;;;2.00;;
31920;SDS011;66485;52.128;4.436;2023-03-01T09:44:35;3.75;;;1.55;;
31920;SDS011;66485;52.128;4.436;2023-03-01T09:47:05;4.90;;;1.50;;
31920;SDS011;66485;52.128;4.436;2023-03-01T09:49:35;4.13;;;1.70;;
31920;SDS011;66485;52.128;4.436;2023-03-01T09:54:49;11.93;;;1.90;;
31920;SDS011;66485;52.128;4.436;2023-03-01T10:02:37;6.68;;;1.55;;
31920;SDS011;66485;52.128;4.436;2023-03-01T10:05:30;9.18;;;1.70;;
31920;SDS011;66485;52.128;4.436;2023-03-01T10:08:30;7.25;;;1.88;;
31920;SDS011;66485;52.128;4.436;2023-03-01T10:11:00;7.55;;;1.88;;
31920;SDS011;66485;52.128;4.436;2023-03-01T10:16:04;4.75;;;1.40;;
31920;SDS011;66485;52.128;4.436;2023-03-01T10:18:36;4.47;;;1.65;;
31920;SDS011;66485;52.128;4.436;2023-03-01T10:21:14;3.35;;;1.60;;
31920;SDS011;66485;52.128;4.436;2023-03-01T10:23:42;5.22;;;1.60;;
31920;SDS011;66485;52.128;4.436;2023-03-01T10:29:09;7.00;;;1.75;;
31920;SDS011;66485;52.128;4.436;2023-03-01T10:31:40;10.00;;;2.65;;
31920;SDS011;66485;52.128;4.436;2023-03-01T10:34:22;5.75;;;1.70;;
31920;SDS011;66485;52.128;4.436;2023-03-01T10:36:55;4.20;;;1.35;;
31920;SDS011;66485;52.128;4.436;2023-03-01T10:39:23;2.58;;;1.30;;
31920;SDS011;66485;52.128;4.436;2023-03-01T10:42:00;4.05;;;1.30;;
31920;SDS011;66485;52.128;4.436;2023-03-01T10:44:35;5.30;;;1.83;;
31920;SDS011;66485;52.128;4.436;2023-03-01T10:47:04;7.53;;;1.65;;
31920;SDS011;66485;52.128;4.436;2023-03-01T10:49:29;5.82;;;1.50;;
31920;SDS011;66485;52.128;4.436;2023-03-01T10:51:55;6.20;;;1.45;;
31920;SDS011;66485;52.128;4.436;2023-03-01T10:54:27;6.70;;;1.27;;
31920;SDS011;66485;52.128;4.436;2023-03-01T10:56:54;3.20;;;1.30;;
31920;SDS011;66485;52.128;4.436;2023-03-01T10:59:29;3.97;;;1.55;;
31920;SDS011;66485;52.128;4.436;2023-03-01T11:02:18;4.53;;;1.17;;
31920;SDS011;66485;52.128;4.436;2023-03-01T11:07:23;3.95;;;1.30;;
31920;SDS011;66485;52.128;4.436;2023-03-01T11:09:48;3.85;;;1.38;;
31920;SDS011;66485;52.128;4.436;2023-03-01T11:12:14;3.33;;;1.30;;
31920;SDS011;66485;52.128;4.436;2023-03-01T11:14:48;2.53;;;1.30;;
31920;SDS011;66485;52.128;4.436;2023-03-01T11:17:17;6.55;;;2.47;;
31920;SDS011;66485;52.128;4.436;2023-03-01T11:20:06;2.20;;;1.17;;
31920;SDS011;66485;52.128;4.436;2023-03-01T11:22:40;2.08;;;1.00;;
31920;SDS011;66485;52.128;4.436;2023-03-01T11:25:14;2.75;;;1.48;;
31920;SDS011;66485;52.128;4.436;2023-03-01T11:27:43;10.27;;;1.63;;
31920;SDS011;66485;52.128;4.436;2023-03-01T11:30:21;4.55;;;1.70;;
31920;SDS011;66485;52.128;4.436;2023-03-01T11:33:01;10.18;;;2.03;;
31920;SDS011;66485;52.128;4.436;2023-03-01T11:35:30;4.03;;;1.42;;
31920;SDS011;66485;52.128;4.436;2023-03-01T11:40:27;6.85;;;1.75;;
31920;SDS011;66485;52.128;4.436;2023-03-01T11:46:57;3.17;;;1.30;;
31920;SDS011;66485;52.128;4.436;2023-03-01T11:54:33;4.75;;;2.03;;
31920;SDS011;66485;52.128;4.436;2023-03-01T11:57:04;5.32;;;1.48;;
31920;SDS011;66485;52.128;4.436;2023-03-01T12:00:07;6.13;;;1.25;;
31920;SDS011;66485;52.128;4.436;2023-03-01T12:02:51;2.63;;;1.50;;
31920;SDS011;66485;52.128;4.436;2023-03-01T12:05:54;2.50;;;1.33;;
31920;SDS011;66485;52.128;4.436;2023-03-01T12:12:23;2.38;;;1.23;;
31920;SDS011;66485;52.128;4.436;2023-03-01T12:20:40;6.13;;;1.77;;
31920;SDS011;66485;52.128;4.436;2023-03-01T12:26:13;15.30;;;5.60;;
31920;SDS011;66485;52.128;4.436;2023-03-01T12:29:03;13.90;;;4.93;;
31920;SDS011;66485;52.128;4.436;2023-03-01T12:40:01;13.00;;;4.50;;
31920;SDS011;66485;52.128;4.436;2023-03-01T12:43:13;12.80;;;3.88;;
31920;SDS011;66485;52.128;4.436;2023-03-01T12:50:50;7.70;;;4.03;;
31920;SDS011;66485;52.128;4.436;2023-03-01T12:53:36;10.13;;;3.90;;
31920;SDS011;66485;52.128;4.436;2023-03-01T12:56:07;7.22;;;3.67;;
31920;SDS011;66485;52.128;4.436;2023-03-01T13:03:58;9.98;;;3.10;;
31920;SDS011;66485;52.128;4.436;2023-03-01T13:09:34;5.45;;;3.08;;
31920;SDS011;66485;52.128;4.436;2023-03-01T13:12:17;11.10;;;2.63;;
31920;SDS011;66485;52.128;4.436;2023-03-01T13:17:47;4.20;;;2.50;;
31920;SDS011;66485;52.128;4.436;2023-03-01T13:20:15;4.20;;;2.42;;
31920;SDS011;66485;52.128;4.436;2023-03-01T13:22:42;4.80;;;2.42;;
31920;SDS011;66485;52.128;4.436;2023-03-01T13:25:15;7.70;;;2.50;;
31920;SDS011;66485;52.128;4.436;2023-03-01T13:27:43;4.72;;;2.70;;
31920;SDS011;66485;52.128;4.436;2023-03-01T13:35:56;4.28;;;2.47;;
31920;SDS011;66485;52.128;4.436;2023-03-01T13:41:52;5.88;;;2.25;;
31920;SDS011;66485;52.128;4.436;2023-03-01T13:44:40;12.25;;;2.00;;
31920;SDS011;66485;52.128;4.436;2023-03-01T13:49:46;6.25;;;2.85;;
31920;SDS011;66485;52.128;4.436;2023-03-01T13:53:02;17.05;;;2.78;;
31920;SDS011;66485;52.128;4.436;2023-03-01T13:55:06;8.65;;;1.92;;
31920;SDS011;66485;52.128;4.436;2023-03-01T13:57:42;5.72;;;1.65;;
31920;SDS011;66485;52.128;4.436;2023-03-01T14:00:30;13.05;;;2.30;;
31920;SDS011;66485;52.128;4.436;2023-03-01T14:03:08;6.85;;;2.17;;
31920;SDS011;66485;52.128;4.436;2023-03-01T14:05:33;4.78;;;1.73;;
31920;SDS011;66485;52.128;4.436;2023-03-01T14:08:00;5.72;;;1.85;;
31920;SDS011;66485;52.128;4.436;2023-03-01T14:10:29;6.85;;;2.03;;
31920;SDS011;66485;52.128;4.436;2023-03-01T14:13:20;7.78;;;1.75;;
31920;SDS011;66485;52.128;4.436;2023-03-01T14:15:53;3.40;;;1.60;;
31920;SDS011;66485;52.128;4.436;2023-03-01T14:18:33;8.45;;;1.83;;
31920;SDS011;66485;52.128;4.436;2023-03-01T14:21:07;2.97;;;1.65;;
31920;SDS011;66485;52.128;4.436;2023-03-01T14:23:33;5.78;;;1.42;;
31920;SDS011;66485;52.128;4.436;2023-03-01T14:26:00;5.57;;;1.85;;
31920;SDS011;66485;52.128;4.436;2023-03-01T14:28:29;7.50;;;2.00;;
31920;SDS011;66485;52.128;4.436;2023-03-01T14:30:58;9.50;;;1.60;;
31920;SDS011;66485;52.128;4.436;2023-03-01T14:33:32;5.80;;;1.67;;
31920;SDS011;66485;52.128;4.436;2023-03-01T14:36:00;5.50;;;1.38;;
31920;SDS011;66485;52.128;4.436;2023-03-01T14:38:33;2.78;;;1.15;;
31920;SDS011;66485;52.128;4.436;2023-03-01T14:41:06;9.15;;;2.03;;
31920;SDS011;66485;52.128;4.436;2023-03-01T14:43:34;7.15;;;1.40;;
31920;SDS011;66485;52.128;4.436;2023-03-01T14:46:01;5.55;;;1.63;;
31920;SDS011;66485;52.128;4.436;2023-03-01T14:48:27;5.20;;;1.30;;
31920;SDS011;66485;52.128;4.436;2023-03-01T14:50:54;6.15;;;1.48;;
31920;SDS011;66485;52.128;4.436;2023-03-01T14:53:27;5.25;;;1.38;;
31920;SDS011;66485;52.128;4.436;2023-03-01T14:55:55;5.07;;;1.50;;
31920;SDS011;66485;52.128;4.436;2023-03-01T14:58:27;5.25;;;1.25;;
31920;SDS011;66485;52.128;4.436;2023-03-01T15:00:53;10.90;;;1.70;;
31920;SDS011;66485;52.128;4.436;2023-03-01T15:03:31;5.47;;;1.45;;
31920;SDS011;66485;52.128;4.436;2023-03-01T15:06:01;8.68;;;1.27;;
31920;SDS011;66485;52.128;4.436;2023-03-01T15:08:27;5.50;;;1.23;;
31920;SDS011;66485;52.128;4.436;2023-03-01T15:13:38;4.35;;;1.30;;
31920;SDS011;66485;52.128;4.436;2023-03-01T15:16:06;8.00;;;1.60;;
31920;SDS011;66485;52.128;4.436;2023-03-01T15:18:51;3.63;;;1.30;;
31920;SDS011;66485;52.128;4.436;2023-03-01T15:21:32;4.68;;;1.33;;
31920;SDS011;66485;52.128;4.436;2023-03-01T15:26:44;5.18;;;1.15;;
31920;SDS011;66485;52.128;4.436;2023-03-01T15:29:23;2.88;;;1.02;;
31920;SDS011;66485;52.128;4.436;2023-03-01T15:32:02;4.95;;;1.58;;
31920;SDS011;66485;52.128;4.436;2023-03-01T15:36:55;2.47;;;1.02;;
31920;SDS011;66485;52.128;4.436;2023-03-01T15:39:29;3.53;;;1.20;;
31920;SDS011;66485;52.128;4.436;2023-03-01T15:41:56;4.53;;;1.20;;
31920;SDS011;66485;52.128;4.436;2023-03-01T15:46:50;7.53;;;1.10;;
31920;SDS011;66485;52.128;4.436;2023-03-01T15:52:14;5.38;;;1.42;;
31920;SDS011;66485;52.128;4.436;2023-03-01T15:54:53;2.30;;;1.10;;
31920;SDS011;66485;52.128;4.436;2023-03-01T15:57:19;2.20;;;0.95;;
31920;SDS011;66485;52.128;4.436;2023-03-01T15:59:45;2.95;;;1.10;;
31920;SDS011;66485;52.128;4.436;2023-03-01T16:02:11;2.13;;;1.30;;
31920;SDS011;66485;52.128;4.436;2023-03-01T16:04:37;3.10;;;1.15;;
31920;SDS011;66485;52.128;4.436;2023-03-01T16:07:03;4.63;;;2.00;;
31920;SDS011;66485;52.128;4.436;2023-03-01T16:09:28;1.50;;;0.90;;
31920;SDS011;66485;52.128;4.436;2023-03-01T16:11:53;2.53;;;1.00;;
31920;SDS011;66485;52.128;4.436;2023-03-01T16:14:19;5.38;;;1.35;;
31920;SDS011;66485;52.128;4.436;2023-03-01T16:16:45;2.58;;;1.30;;
31920;SDS011;66485;52.128;4.436;2023-03-01T16:19:10;2.95;;;1.08;;
31920;SDS011;66485;52.128;4.436;2023-03-01T16:21:36;3.83;;;1.00;;
31920;SDS011;66485;52.128;4.436;2023-03-01T16:24:02;2.03;;;1.10;;
31920;SDS011;66485;52.128;4.436;2023-03-01T16:26:27;2.88;;;1.30;;
31920;SDS011;66485;52.128;4.436;2023-03-01T16:28:56;2.92;;;1.10;;
31920;SDS011;66485;52.128;4.436;2023-03-01T16:31:23;2.60;;;1.17;;
31920;SDS011;66485;52.128;4.436;2023-03-01T16:33:52;2.65;;;1.15;;
31920;SDS011;66485;52.128;4.436;2023-03-01T16:36:19;2.20;;;1.00;;
31920;SDS011;66485;52.128;4.436;2023-03-01T16:38:45;2.38;;;1.02;;
31920;SDS011;66485;52.128;4.436;2023-03-01T16:41:12;2.92;;;1.10;;
31920;SDS011;66485;52.128;4.436;2023-03-01T16:43:39;2.30;;;1.10;;
31920;SDS011;66485;52.128;4.436;2023-03-01T16:48:55;1.20;;;0.70;;